sensor_id;sensor_type;location;lat;lon;timestamp;P1;durP1;ratioP1;P2;durP2;ratioP2
60726;SDS011;46577;49.004;12.120;2023-04-25T00:00:24;6.63;;;3.47;;
60726;SDS011;46577;49.004;12.120;2023-04-25T00:02:50;6.33;;;2.77;;
60726;SDS011;46577;49.004;12.120;2023-04-25T00:05:16;6.77;;;3.80;;
60726;SDS011;46577;49.004;12.120;2023-04-25T00:07:42;9.67;;;3.50;;
60726;SDS011;46577;49.004;12.120;2023-04-25T00:10:08;3.33;;;2.70;;
60726;SDS011;46577;49.004;12.120;2023-04-25T00:12:36;7.10;;;3.07;;
60726;SDS011;46577;49.004;12.120;2023-04-25T00:15:02;3.63;;;2.70;;
60726;SDS011;46577;49.004;12.120;2023-04-25T00:17:28;3.23;;;2.90;;
60726;SDS011;46577;49.004;12.120;2023-04-25T00:19:54;4.13;;;3.07;;
60726;SDS011;46577;49.004;12.120;2023-04-25T00:22:20;5.03;;;3.00;;
60726;SDS011;46577;49.004;12.120;2023-04-25T00:24:46;6.00;;;3.00;;
60726;SDS011;46577;49.004;12.120;2023-04-25T00:27:12;3.30;;;2.80;;
60726;SDS011;46577;49.004;12.120;2023-04-25T00:29:38;4.10;;;2.90;;
60726;SDS011;46577;49.004;12.120;2023-04-25T00:32:03;3.43;;;2.47;;
60726;SDS011;46577;49.004;12.120;2023-04-25T00:34:29;5.73;;;2.90;;
60726;SDS011;46577;49.004;12.120;2023-04-25T00:36:55;4.30;;;3.40;;
60726;SDS011;46577;49.004;12.120;2023-04-25T00:39:21;6.37;;;3.00;;
60726;SDS011;46577;49.004;12.120;2023-04-25T00:41:47;6.30;;;3.47;;
60726;SDS011;46577;49.004;12.120;2023-04-25T00:44:13;5.27;;;3.63;;
60726;SDS011;46577;49.004;12.120;2023-04-25T00:46:41;3.87;;;3.17;;
60726;SDS011;46577;49.004;12.120;2023-04-25T00:49:07;7.13;;;2.67;;
60726;SDS011;46577;49.004;12.120;2023-04-25T00:51:33;3.80;;;2.87;;
60726;SDS011;46577;49.004;12.120;2023-04-25T00:54:00;3.67;;;3.17;;
60726;SDS011;46577;49.004;12.120;2023-04-25T00:56:26;3.40;;;2.77;;
60726;SDS011;46577;49.004;12.120;2023-04-25T00:58:53;4.97;;;2.73;;
60726;SDS011;46577;49.004;12.120;2023-04-25T01:01:21;6.67;;;2.80;;
60726;SDS011;46577;49.004;12.120;2023-04-25T01:03:47;3.47;;;3.00;;
60726;SDS011;46577;49.004;12.120;2023-04-25T01:06:15;6.30;;;2.90;;
60726;SDS011;46577;49.004;12.120;2023-04-25T01:08:41;3.63;;;3.30;;
60726;SDS011;46577;49.004;12.120;2023-04-25T01:11:07;5.87;;;3.83;;
60726;SDS011;46577;49.004;12.120;2023-04-25T01:13:34;8.83;;;3.43;;
60726;SDS011;46577;49.004;12.120;2023-04-25T01:16:00;9.53;;;4.17;;
60726;SDS011;46577;49.004;12.120;2023-04-25T01:18:27;8.00;;;4.27;;
60726;SDS011;46577;49.004;12.120;2023-04-25T01:20:53;8.10;;;3.77;;
60726;SDS011;46577;49.004;12.120;2023-04-25T01:23:21;7.20;;;3.70;;
60726;SDS011;46577;49.004;12.120;2023-04-25T01:25:47;5.30;;;3.70;;
60726;SDS011;46577;49.004;12.120;2023-04-25T01:28:14;9.97;;;4.50;;
60726;SDS011;46577;49.004;12.120;2023-04-25T01:30:40;8.60;;;3.83;;
60726;SDS011;46577;49.004;12.120;2023-04-25T01:33:06;12.03;;;3.80;;
60726;SDS011;46577;49.004;12.120;2023-04-25T01:35:33;5.20;;;4.30;;
60726;SDS011;46577;49.004;12.120;2023-04-25T01:37:59;10.80;;;3.63;;
60726;SDS011;46577;49.004;12.120;2023-04-25T01:40:26;10.93;;;3.40;;
60726;SDS011;46577;49.004;12.120;2023-04-25T01:42:52;6.30;;;4.53;;
60726;SDS011;46577;49.004;12.120;2023-04-25T01:45:18;5.80;;;4.53;;
60726;SDS011;46577;49.004;12.120;2023-04-25T01:47:44;7.90;;;3.87;;
60726;SDS011;46577;49.004;12.120;2023-04-25T01:50:14;7.60;;;4.30;;
60726;SDS011;46577;49.004;12.120;2023-04-25T01:52:41;10.10;;;4.10;;
60726;SDS011;46577;49.004;12.120;2023-04-25T01:55:06;7.57;;;4.57;;
60726;SDS011;46577;49.004;12.120;2023-04-25T01:57:32;5.03;;;3.53;;
60726;SDS011;46577;49.004;12.120;2023-04-25T01:59:59;7.07;;;4.00;;
60726;SDS011;46577;49.004;12.120;2023-04-25T02:02:26;6.20;;;3.83;;
60726;SDS011;46577;49.004;12.120;2023-04-25T02:04:52;6.50;;;3.80;;
60726;SDS011;46577;49.004;12.120;2023-04-25T02:07:19;3.60;;;3.30;;
60726;SDS011;46577;49.004;12.120;2023-04-25T02:09:44;5.17;;;3.73;;
60726;SDS011;46577;49.004;12.120;2023-04-25T02:12:10;5.90;;;4.50;;
60726;SDS011;46577;49.004;12.120;2023-04-25T02:14:36;5.30;;;3.93;;
60726;SDS011;46577;49.004;12.120;2023-04-25T02:17:02;4.37;;;3.53;;
60726;SDS011;46577;49.004;12.120;2023-04-25T02:19:27;4.47;;;3.23;;
60726;SDS011;46577;49.004;12.120;2023-04-25T02:21:53;5.60;;;3.50;;
60726;SDS011;46577;49.004;12.120;2023-04-25T02:24:19;6.67;;;3.43;;
60726;SDS011;46577;49.004;12.120;2023-04-25T02:26:45;4.53;;;3.47;;
60726;SDS011;46577;49.004;12.120;2023-04-25T02:29:11;12.10;;;3.13;;
60726;SDS011;46577;49.004;12.120;2023-04-25T02:31:37;9.70;;;3.70;;
60726;SDS011;46577;49.004;12.120;2023-04-25T02:34:03;5.17;;;3.07;;
60726;SDS011;46577;49.004;12.120;2023-04-25T02:36:29;5.20;;;3.33;;
60726;SDS011;46577;49.004;12.120;2023-04-25T02:38:59;6.67;;;3.53;;
60726;SDS011;46577;49.004;12.120;2023-04-25T02:41:25;6.43;;;3.67;;
60726;SDS011;46577;49.004;12.120;2023-04-25T02:43:51;12.33;;;4.00;;
60726;SDS011;46577;49.004;12.120;2023-04-25T02:46:17;9.00;;;4.27;;
60726;SDS011;46577;49.004;12.120;2023-04-25T02:48:42;3.77;;;3.47;;
60726;SDS011;46577;49.004;12.120;2023-04-25T02:51:08;4.33;;;3.50;;
60726;SDS011;46577;49.004;12.120;2023-04-25T02:53:34;4.07;;;3.67;;
60726;SDS011;46577;49.004;12.120;2023-04-25T02:56:00;6.10;;;4.20;;
60726;SDS011;46577;49.004;12.120;2023-04-25T02:58:26;3.93;;;3.60;;
60726;SDS011;46577;49.004;12.120;2023-04-25T03:00:51;8.60;;;3.50;;
60726;SDS011;46577;49.004;12.120;2023-04-25T03:03:17;5.77;;;3.40;;
60726;SDS011;46577;49.004;12.120;2023-04-25T03:05:43;4.30;;;3.17;;
60726;SDS011;46577;49.004;12.120;2023-04-25T03:08:09;6.30;;;3.50;;
60726;SDS011;46577;49.004;12.120;2023-04-25T03:10:35;4.50;;;3.90;;
60726;SDS011;46577;49.004;12.120;2023-04-25T03:13:00;5.40;;;2.90;;
60726;SDS011;46577;49.004;12.120;2023-04-25T03:15:26;4.60;;;3.63;;
60726;SDS011;46577;49.004;12.120;2023-04-25T03:17:51;6.27;;;3.80;;
60726;SDS011;46577;49.004;12.120;2023-04-25T03:20:17;4.10;;;3.60;;
60726;SDS011;46577;49.004;12.120;2023-04-25T03:22:43;4.00;;;3.53;;
60726;SDS011;46577;49.004;12.120;2023-04-25T03:25:09;5.57;;;3.27;;
60726;SDS011;46577;49.004;12.120;2023-04-25T03:27:35;5.30;;;3.83;;
60726;SDS011;46577;49.004;12.120;2023-04-25T03:30:00;9.60;;;4.53;;
60726;SDS011;46577;49.004;12.120;2023-04-25T03:32:26;4.80;;;3.90;;
60726;SDS011;46577;49.004;12.120;2023-04-25T03:34:52;4.70;;;3.47;;
60726;SDS011;46577;49.004;12.120;2023-04-25T03:37:17;4.50;;;3.80;;
60726;SDS011;46577;49.004;12.120;2023-04-25T03:39:43;5.30;;;3.93;;
60726;SDS011;46577;49.004;12.120;2023-04-25T03:42:08;4.87;;;3.80;;
60726;SDS011;46577;49.004;12.120;2023-04-25T03:44:34;4.93;;;3.70;;
60726;SDS011;46577;49.004;12.120;2023-04-25T03:47:00;6.50;;;3.80;;
60726;SDS011;46577;49.004;12.120;2023-04-25T03:49:25;5.30;;;3.67;;
60726;SDS011;46577;49.004;12.120;2023-04-25T03:51:51;5.37;;;3.40;;
60726;SDS011;46577;49.004;12.120;2023-04-25T03:54:16;4.37;;;3.30;;
60726;SDS011;46577;49.004;12.120;2023-04-25T03:56:42;5.27;;;3.80;;
60726;SDS011;46577;49.004;12.120;2023-04-25T03:59:08;3.73;;;3.23;;
60726;SDS011;46577;49.004;12.120;2023-04-25T04:01:33;4.30;;;3.57;;
60726;SDS011;46577;49.004;12.120;2023-04-25T04:03:59;5.10;;;3.50;;
60726;SDS011;46577;49.004;12.120;2023-04-25T04:06:25;9.07;;;3.90;;
60726;SDS011;46577;49.004;12.120;2023-04-25T04:08:50;4.77;;;3.80;;
60726;SDS011;46577;49.004;12.120;2023-04-25T04:11:16;11.30;;;3.70;;
60726;SDS011;46577;49.004;12.120;2023-04-25T04:13:41;4.70;;;4.07;;
60726;SDS011;46577;49.004;12.120;2023-04-25T04:16:07;5.13;;;3.30;;
60726;SDS011;46577;49.004;12.120;2023-04-25T04:18:33;3.20;;;2.90;;
60726;SDS011;46577;49.004;12.120;2023-04-25T04:20:59;5.43;;;4.00;;
60726;SDS011;46577;49.004;12.120;2023-04-25T04:23:24;4.33;;;3.50;;
60726;SDS011;46577;49.004;12.120;2023-04-25T04:25:52;5.03;;;3.23;;
60726;SDS011;46577;49.004;12.120;2023-04-25T04:28:18;5.30;;;4.10;;
60726;SDS011;46577;49.004;12.120;2023-04-25T04:30:43;8.73;;;3.80;;
60726;SDS011;46577;49.004;12.120;2023-04-25T04:33:11;13.83;;;3.50;;
60726;SDS011;46577;49.004;12.120;2023-04-25T04:35:37;4.17;;;3.37;;
60726;SDS011;46577;49.004;12.120;2023-04-25T04:38:03;4.60;;;3.90;;
60726;SDS011;46577;49.004;12.120;2023-04-25T04:40:28;4.10;;;3.40;;
60726;SDS011;46577;49.004;12.120;2023-04-25T04:42:56;5.70;;;3.73;;
60726;SDS011;46577;49.004;12.120;2023-04-25T04:45:22;4.80;;;3.47;;
60726;SDS011;46577;49.004;12.120;2023-04-25T04:47:48;7.03;;;3.37;;
60726;SDS011;46577;49.004;12.120;2023-04-25T04:50:15;5.40;;;3.50;;
60726;SDS011;46577;49.004;12.120;2023-04-25T04:52:41;6.77;;;5.10;;
60726;SDS011;46577;49.004;12.120;2023-04-25T04:55:07;3.50;;;3.20;;
60726;SDS011;46577;49.004;12.120;2023-04-25T04:57:34;6.23;;;4.23;;
60726;SDS011;46577;49.004;12.120;2023-04-25T04:59:59;7.97;;;3.87;;
60726;SDS011;46577;49.004;12.120;2023-04-25T05:02:26;5.30;;;3.13;;
60726;SDS011;46577;49.004;12.120;2023-04-25T05:04:51;5.10;;;4.57;;
60726;SDS011;46577;49.004;12.120;2023-04-25T05:07:17;6.43;;;4.33;;
60726;SDS011;46577;49.004;12.120;2023-04-25T05:09:44;9.00;;;4.20;;
60726;SDS011;46577;49.004;12.120;2023-04-25T05:12:10;5.57;;;3.87;;
60726;SDS011;46577;49.004;12.120;2023-04-25T05:14:35;4.57;;;4.17;;
60726;SDS011;46577;49.004;12.120;2023-04-25T05:17:01;5.93;;;4.77;;
60726;SDS011;46577;49.004;12.120;2023-04-25T05:19:29;4.93;;;4.27;;
60726;SDS011;46577;49.004;12.120;2023-04-25T05:21:55;6.20;;;4.40;;
60726;SDS011;46577;49.004;12.120;2023-04-25T05:24:21;6.10;;;3.70;;
60726;SDS011;46577;49.004;12.120;2023-04-25T05:26:46;6.87;;;3.80;;
60726;SDS011;46577;49.004;12.120;2023-04-25T05:29:12;7.50;;;3.97;;
60726;SDS011;46577;49.004;12.120;2023-04-25T05:31:37;8.20;;;4.33;;
60726;SDS011;46577;49.004;12.120;2023-04-25T05:34:03;5.40;;;4.20;;
60726;SDS011;46577;49.004;12.120;2023-04-25T05:36:28;6.17;;;3.80;;
60726;SDS011;46577;49.004;12.120;2023-04-25T05:38:55;6.93;;;3.47;;
60726;SDS011;46577;49.004;12.120;2023-04-25T05:41:21;11.87;;;5.10;;
60726;SDS011;46577;49.004;12.120;2023-04-25T05:43:47;7.40;;;4.43;;
60726;SDS011;46577;49.004;12.120;2023-04-25T05:46:14;3.93;;;3.53;;
60726;SDS011;46577;49.004;12.120;2023-04-25T05:48:41;5.83;;;3.50;;
60726;SDS011;46577;49.004;12.120;2023-04-25T05:51:07;4.30;;;3.37;;
60726;SDS011;46577;49.004;12.120;2023-04-25T05:53:33;4.83;;;3.27;;
60726;SDS011;46577;49.004;12.120;2023-04-25T05:55:59;5.70;;;2.90;;
60726;SDS011;46577;49.004;12.120;2023-04-25T05:58:24;4.20;;;2.97;;
60726;SDS011;46577;49.004;12.120;2023-04-25T06:00:50;5.33;;;3.63;;
60726;SDS011;46577;49.004;12.120;2023-04-25T06:03:16;6.43;;;3.10;;
60726;SDS011;46577;49.004;12.120;2023-04-25T06:05:42;4.73;;;3.27;;
60726;SDS011;46577;49.004;12.120;2023-04-25T06:08:08;3.33;;;2.67;;
60726;SDS011;46577;49.004;12.120;2023-04-25T06:10:35;4.17;;;3.30;;
60726;SDS011;46577;49.004;12.120;2023-04-25T06:13:01;4.80;;;3.13;;
60726;SDS011;46577;49.004;12.120;2023-04-25T06:15:27;7.83;;;2.67;;
60726;SDS011;46577;49.004;12.120;2023-04-25T06:17:53;4.43;;;3.17;;
60726;SDS011;46577;49.004;12.120;2023-04-25T06:20:18;6.90;;;2.73;;
60726;SDS011;46577;49.004;12.120;2023-04-25T06:22:48;5.57;;;3.00;;
60726;SDS011;46577;49.004;12.120;2023-04-25T06:25:14;6.40;;;3.10;;
60726;SDS011;46577;49.004;12.120;2023-04-25T06:27:40;2.90;;;2.40;;
60726;SDS011;46577;49.004;12.120;2023-04-25T06:30:06;3.33;;;3.00;;
60726;SDS011;46577;49.004;12.120;2023-04-25T06:32:32;3.53;;;2.47;;
60726;SDS011;46577;49.004;12.120;2023-04-25T06:34:59;3.47;;;2.40;;
60726;SDS011;46577;49.004;12.120;2023-04-25T06:37:25;4.97;;;2.70;;
60726;SDS011;46577;49.004;12.120;2023-04-25T06:39:50;4.70;;;2.50;;
60726;SDS011;46577;49.004;12.120;2023-04-25T06:42:16;3.07;;;2.67;;
60726;SDS011;46577;49.004;12.120;2023-04-25T06:44:41;3.57;;;2.37;;
60726;SDS011;46577;49.004;12.120;2023-04-25T06:47:07;3.70;;;2.30;;
60726;SDS011;46577;49.004;12.120;2023-04-25T06:49:32;2.30;;;2.10;;
60726;SDS011;46577;49.004;12.120;2023-04-25T06:51:58;2.80;;;2.60;;
60726;SDS011;46577;49.004;12.120;2023-04-25T06:54:24;4.23;;;2.17;;
60726;SDS011;46577;49.004;12.120;2023-04-25T06:56:52;7.93;;;3.17;;
60726;SDS011;46577;49.004;12.120;2023-04-25T06:59:18;4.03;;;2.70;;
60726;SDS011;46577;49.004;12.120;2023-04-25T07:01:43;3.13;;;2.83;;
60726;SDS011;46577;49.004;12.120;2023-04-25T07:04:09;3.10;;;2.80;;
60726;SDS011;46577;49.004;12.120;2023-04-25T07:06:35;3.03;;;2.50;;
60726;SDS011;46577;49.004;12.120;2023-04-25T07:09:03;2.60;;;2.30;;
60726;SDS011;46577;49.004;12.120;2023-04-25T07:11:29;5.53;;;2.40;;
60726;SDS011;46577;49.004;12.120;2023-04-25T07:13:55;5.80;;;2.47;;
60726;SDS011;46577;49.004;12.120;2023-04-25T07:16:20;4.17;;;2.83;;
60726;SDS011;46577;49.004;12.120;2023-04-25T07:18:46;2.70;;;2.30;;
60726;SDS011;46577;49.004;12.120;2023-04-25T07:21:11;3.80;;;1.97;;
60726;SDS011;46577;49.004;12.120;2023-04-25T07:23:37;6.20;;;2.70;;
60726;SDS011;46577;49.004;12.120;2023-04-25T07:26:05;4.13;;;2.50;;
60726;SDS011;46577;49.004;12.120;2023-04-25T07:28:31;3.60;;;2.80;;
60726;SDS011;46577;49.004;12.120;2023-04-25T07:30:56;2.63;;;2.27;;
60726;SDS011;46577;49.004;12.120;2023-04-25T07:33:23;3.87;;;2.67;;
60726;SDS011;46577;49.004;12.120;2023-04-25T07:35:48;3.50;;;2.30;;
60726;SDS011;46577;49.004;12.120;2023-04-25T07:38:15;2.40;;;2.20;;
60726;SDS011;46577;49.004;12.120;2023-04-25T07:40:41;2.60;;;2.40;;
60726;SDS011;46577;49.004;12.120;2023-04-25T07:43:06;3.77;;;2.53;;
60726;SDS011;46577;49.004;12.120;2023-04-25T07:45:32;3.53;;;2.20;;
60726;SDS011;46577;49.004;12.120;2023-04-25T07:47:57;3.83;;;2.50;;
60726;SDS011;46577;49.004;12.120;2023-04-25T07:50:23;2.60;;;2.40;;
60726;SDS011;46577;49.004;12.120;2023-04-25T07:52:49;5.00;;;2.47;;
60726;SDS011;46577;49.004;12.120;2023-04-25T07:55:14;3.63;;;2.60;;
60726;SDS011;46577;49.004;12.120;2023-04-25T07:57:40;6.70;;;3.33;;
60726;SDS011;46577;49.004;12.120;2023-04-25T08:00:06;2.57;;;2.20;;
60726;SDS011;46577;49.004;12.120;2023-04-25T08:02:36;5.30;;;2.60;;
60726;SDS011;46577;49.004;12.120;2023-04-25T08:05:02;4.03;;;2.50;;
60726;SDS011;46577;49.004;12.120;2023-04-25T08:07:28;4.07;;;2.73;;
60726;SDS011;46577;49.004;12.120;2023-04-25T08:09:54;3.10;;;2.47;;
60726;SDS011;46577;49.004;12.120;2023-04-25T08:12:19;5.90;;;2.13;;
60726;SDS011;46577;49.004;12.120;2023-04-25T08:14:45;4.60;;;2.60;;
60726;SDS011;46577;49.004;12.120;2023-04-25T08:17:11;2.80;;;2.17;;
60726;SDS011;46577;49.004;12.120;2023-04-25T08:19:37;3.20;;;2.33;;
60726;SDS011;46577;49.004;12.120;2023-04-25T08:22:02;5.70;;;2.60;;
60726;SDS011;46577;49.004;12.120;2023-04-25T08:24:28;2.40;;;2.10;;
60726;SDS011;46577;49.004;12.120;2023-04-25T08:26:54;4.10;;;2.37;;
60726;SDS011;46577;49.004;12.120;2023-04-25T08:29:20;5.23;;;2.30;;
60726;SDS011;46577;49.004;12.120;2023-04-25T08:31:45;2.90;;;2.10;;
60726;SDS011;46577;49.004;12.120;2023-04-25T08:34:11;7.70;;;1.87;;
60726;SDS011;46577;49.004;12.120;2023-04-25T08:36:37;3.40;;;1.83;;
60726;SDS011;46577;49.004;12.120;2023-04-25T08:39:02;2.00;;;1.90;;
60726;SDS011;46577;49.004;12.120;2023-04-25T08:41:28;3.33;;;2.50;;
60726;SDS011;46577;49.004;12.120;2023-04-25T08:43:54;7.00;;;2.43;;
60726;SDS011;46577;49.004;12.120;2023-04-25T08:46:22;2.03;;;1.80;;
60726;SDS011;46577;49.004;12.120;2023-04-25T08:48:48;4.97;;;2.33;;
60726;SDS011;46577;49.004;12.120;2023-04-25T08:51:22;5.80;;;3.10;;
60726;SDS011;46577;49.004;12.120;2023-04-25T08:53:53;2.40;;;2.20;;
60726;SDS011;46577;49.004;12.120;2023-04-25T08:56:19;3.43;;;2.37;;
60726;SDS011;46577;49.004;12.120;2023-04-25T08:58:50;2.90;;;1.80;;
60726;SDS011;46577;49.004;12.120;2023-04-25T09:01:16;4.17;;;2.70;;
60726;SDS011;46577;49.004;12.120;2023-04-25T09:03:43;2.13;;;1.97;;
60726;SDS011;46577;49.004;12.120;2023-04-25T09:06:10;2.10;;;2.00;;
60726;SDS011;46577;49.004;12.120;2023-04-25T09:08:36;2.53;;;2.33;;
60726;SDS011;46577;49.004;12.120;2023-04-25T09:11:02;2.93;;;1.97;;
60726;SDS011;46577;49.004;12.120;2023-04-25T09:13:28;3.27;;;2.30;;
60726;SDS011;46577;49.004;12.120;2023-04-25T09:15:55;3.10;;;2.00;;
60726;SDS011;46577;49.004;12.120;2023-04-25T09:18:28;2.20;;;2.00;;
60726;SDS011;46577;49.004;12.120;2023-04-25T09:20:56;3.97;;;2.10;;
60726;SDS011;46577;49.004;12.120;2023-04-25T09:23:29;2.17;;;2.03;;
60726;SDS011;46577;49.004;12.120;2023-04-25T09:25:55;2.00;;;1.80;;
60726;SDS011;46577;49.004;12.120;2023-04-25T09:28:24;3.17;;;2.13;;
60726;SDS011;46577;49.004;12.120;2023-04-25T09:30:55;1.83;;;1.50;;
60726;SDS011;46577;49.004;12.120;2023-04-25T09:33:26;2.30;;;2.10;;
60726;SDS011;46577;49.004;12.120;2023-04-25T09:35:54;2.70;;;2.40;;
60726;SDS011;46577;49.004;12.120;2023-04-25T09:38:43;2.77;;;2.57;;
60726;SDS011;46577;49.004;12.120;2023-04-25T09:41:09;2.50;;;2.30;;
60726;SDS011;46577;49.004;12.120;2023-04-25T09:43:36;3.20;;;2.40;;
60726;SDS011;46577;49.004;12.120;2023-04-25T09:46:02;2.00;;;1.80;;
60726;SDS011;46577;49.004;12.120;2023-04-25T09:48:32;1.73;;;1.63;;
60726;SDS011;46577;49.004;12.120;2023-04-25T09:51:11;1.57;;;1.37;;
60726;SDS011;46577;49.004;12.120;2023-04-25T09:53:41;1.70;;;1.60;;
60726;SDS011;46577;49.004;12.120;2023-04-25T09:56:09;1.73;;;1.63;;
60726;SDS011;46577;49.004;12.120;2023-04-25T09:58:37;2.43;;;2.23;;
60726;SDS011;46577;49.004;12.120;2023-04-25T10:01:05;2.30;;;2.10;;
60726;SDS011;46577;49.004;12.120;2023-04-25T10:03:33;16.87;;;4.90;;
60726;SDS011;46577;49.004;12.120;2023-04-25T10:06:00;3.43;;;3.00;;
60726;SDS011;46577;49.004;12.120;2023-04-25T10:08:31;2.83;;;2.57;;
60726;SDS011;46577;49.004;12.120;2023-04-25T10:10:59;4.10;;;2.97;;
60726;SDS011;46577;49.004;12.120;2023-04-25T10:13:27;2.73;;;2.40;;
60726;SDS011;46577;49.004;12.120;2023-04-25T10:15:55;2.37;;;2.17;;
60726;SDS011;46577;49.004;12.120;2023-04-25T10:18:23;2.80;;;1.97;;
60726;SDS011;46577;49.004;12.120;2023-04-25T10:20:50;1.80;;;1.70;;
60726;SDS011;46577;49.004;12.120;2023-04-25T10:23:16;2.60;;;2.10;;
60726;SDS011;46577;49.004;12.120;2023-04-25T10:25:42;4.57;;;2.20;;
60726;SDS011;46577;49.004;12.120;2023-04-25T10:28:08;2.30;;;1.90;;
60726;SDS011;46577;49.004;12.120;2023-04-25T10:30:34;1.93;;;1.73;;
60726;SDS011;46577;49.004;12.120;2023-04-25T10:33:00;1.97;;;1.87;;
60726;SDS011;46577;49.004;12.120;2023-04-25T10:35:27;2.43;;;1.80;;
60726;SDS011;46577;49.004;12.120;2023-04-25T10:40:37;3.47;;;3.00;;
60726;SDS011;46577;49.004;12.120;2023-04-25T10:43:49;4.10;;;3.10;;
60726;SDS011;46577;49.004;12.120;2023-04-25T10:46:01;3.83;;;3.07;;
60726;SDS011;46577;49.004;12.120;2023-04-25T10:48:27;3.33;;;3.03;;
60726;SDS011;46577;49.004;12.120;2023-04-25T10:51:09;4.60;;;3.37;;
60726;SDS011;46577;49.004;12.120;2023-04-25T10:53:36;3.77;;;2.87;;
60726;SDS011;46577;49.004;12.120;2023-04-25T10:56:11;3.27;;;2.90;;
60726;SDS011;46577;49.004;12.120;2023-04-25T10:58:46;3.20;;;2.63;;
60726;SDS011;46577;49.004;12.120;2023-04-25T11:01:12;5.10;;;2.70;;
60726;SDS011;46577;49.004;12.120;2023-04-25T11:03:42;4.90;;;3.03;;
60726;SDS011;46577;49.004;12.120;2023-04-25T11:06:18;2.97;;;2.73;;
60726;SDS011;46577;49.004;12.120;2023-04-25T11:08:48;3.13;;;2.83;;
60726;SDS011;46577;49.004;12.120;2023-04-25T11:11:18;3.40;;;2.87;;
60726;SDS011;46577;49.004;12.120;2023-04-25T11:13:47;2.47;;;2.27;;
60726;SDS011;46577;49.004;12.120;2023-04-25T11:16:14;2.60;;;2.40;;
60726;SDS011;46577;49.004;12.120;2023-04-25T11:18:41;2.40;;;2.20;;
60726;SDS011;46577;49.004;12.120;2023-04-25T11:21:10;1.93;;;1.67;;
60726;SDS011;46577;49.004;12.120;2023-04-25T11:23:36;3.60;;;1.90;;
60726;SDS011;46577;49.004;12.120;2023-04-25T11:26:02;2.30;;;1.70;;
60726;SDS011;46577;49.004;12.120;2023-04-25T11:28:28;2.00;;;1.77;;
60726;SDS011;46577;49.004;12.120;2023-04-25T11:30:55;1.50;;;1.40;;
60726;SDS011;46577;49.004;12.120;2023-04-25T11:33:24;3.97;;;1.60;;
60726;SDS011;46577;49.004;12.120;2023-04-25T11:35:52;4.60;;;1.70;;
60726;SDS011;46577;49.004;12.120;2023-04-25T11:38:19;5.17;;;1.70;;
60726;SDS011;46577;49.004;12.120;2023-04-25T11:40:49;2.50;;;2.00;;
60726;SDS011;46577;49.004;12.120;2023-04-25T11:43:20;1.47;;;1.37;;
60726;SDS011;46577;49.004;12.120;2023-04-25T11:45:49;1.90;;;1.70;;
60726;SDS011;46577;49.004;12.120;2023-04-25T11:48:16;3.03;;;1.30;;
60726;SDS011;46577;49.004;12.120;2023-04-25T11:50:42;2.87;;;1.30;;
60726;SDS011;46577;49.004;12.120;2023-04-25T11:53:08;2.23;;;1.60;;
60726;SDS011;46577;49.004;12.120;2023-04-25T11:55:35;2.63;;;1.80;;
60726;SDS011;46577;49.004;12.120;2023-04-25T11:58:01;2.43;;;1.60;;
60726;SDS011;46577;49.004;12.120;2023-04-25T12:00:28;3.93;;;2.30;;
60726;SDS011;46577;49.004;12.120;2023-04-25T12:02:54;3.57;;;2.20;;
60726;SDS011;46577;49.004;12.120;2023-04-25T12:05:26;2.33;;;1.60;;
60726;SDS011;46577;49.004;12.120;2023-04-25T12:07:53;1.80;;;1.70;;
60726;SDS011;46577;49.004;12.120;2023-04-25T12:10:20;2.10;;;1.83;;
60726;SDS011;46577;49.004;12.120;2023-04-25T12:12:46;3.40;;;2.10;;
60726;SDS011;46577;49.004;12.120;2023-04-25T12:17:40;3.50;;;2.00;;
60726;SDS011;46577;49.004;12.120;2023-04-25T12:20:10;3.10;;;1.80;;
60726;SDS011;46577;49.004;12.120;2023-04-25T12:22:48;3.53;;;1.60;;
60726;SDS011;46577;49.004;12.120;2023-04-25T12:31:02;5.90;;;2.20;;
60726;SDS011;46577;49.004;12.120;2023-04-25T12:33:30;2.90;;;1.90;;
60726;SDS011;46577;49.004;12.120;2023-04-25T12:35:56;4.13;;;1.70;;
60726;SDS011;46577;49.004;12.120;2023-04-25T12:38:23;4.40;;;2.10;;
60726;SDS011;46577;49.004;12.120;2023-04-25T12:40:54;4.20;;;1.73;;
60726;SDS011;46577;49.004;12.120;2023-04-25T12:43:20;2.00;;;1.60;;
60726;SDS011;46577;49.004;12.120;2023-04-25T12:45:50;3.60;;;1.70;;
60726;SDS011;46577;49.004;12.120;2023-04-25T12:48:20;3.07;;;1.73;;
60726;SDS011;46577;49.004;12.120;2023-04-25T12:50:46;3.80;;;1.67;;
60726;SDS011;46577;49.004;12.120;2023-04-25T12:53:14;11.23;;;2.10;;
60726;SDS011;46577;49.004;12.120;2023-04-25T12:55:43;7.40;;;2.07;;
60726;SDS011;46577;49.004;12.120;2023-04-25T12:58:15;2.50;;;2.17;;
60726;SDS011;46577;49.004;12.120;2023-04-25T13:00:42;2.63;;;2.00;;
60726;SDS011;46577;49.004;12.120;2023-04-25T13:03:08;2.27;;;2.07;;
60726;SDS011;46577;49.004;12.120;2023-04-25T13:05:35;3.50;;;2.13;;
60726;SDS011;46577;49.004;12.120;2023-04-25T13:08:01;3.67;;;2.03;;
60726;SDS011;46577;49.004;12.120;2023-04-25T13:10:27;2.23;;;2.03;;
60726;SDS011;46577;49.004;12.120;2023-04-25T13:12:53;2.20;;;1.80;;
60726;SDS011;46577;49.004;12.120;2023-04-25T13:15:19;4.00;;;1.83;;
60726;SDS011;46577;49.004;12.120;2023-04-25T13:17:44;4.00;;;1.83;;
60726;SDS011;46577;49.004;12.120;2023-04-25T13:20:10;3.80;;;2.30;;
60726;SDS011;46577;49.004;12.120;2023-04-25T13:22:39;5.13;;;1.97;;
60726;SDS011;46577;49.004;12.120;2023-04-25T13:25:05;2.90;;;1.97;;
60726;SDS011;46577;49.004;12.120;2023-04-25T13:27:32;2.67;;;1.73;;
60726;SDS011;46577;49.004;12.120;2023-04-25T13:29:59;4.20;;;2.23;;
60726;SDS011;46577;49.004;12.120;2023-04-25T13:32:26;1.70;;;1.60;;
60726;SDS011;46577;49.004;12.120;2023-04-25T13:34:52;2.60;;;1.97;;
60726;SDS011;46577;49.004;12.120;2023-04-25T13:37:18;2.87;;;2.10;;
60726;SDS011;46577;49.004;12.120;2023-04-25T13:39:44;2.40;;;2.10;;
60726;SDS011;46577;49.004;12.120;2023-04-25T13:42:09;4.20;;;2.10;;
60726;SDS011;46577;49.004;12.120;2023-04-25T13:44:36;4.30;;;1.93;;
60726;SDS011;46577;49.004;12.120;2023-04-25T13:47:01;4.30;;;2.20;;
60726;SDS011;46577;49.004;12.120;2023-04-25T13:49:27;3.40;;;2.20;;
60726;SDS011;46577;49.004;12.120;2023-04-25T13:51:53;5.60;;;3.03;;
60726;SDS011;46577;49.004;12.120;2023-04-25T13:54:18;3.63;;;2.43;;
60726;SDS011;46577;49.004;12.120;2023-04-25T13:56:44;11.47;;;3.00;;
60726;SDS011;46577;49.004;12.120;2023-04-25T13:59:10;4.50;;;2.70;;
60726;SDS011;46577;49.004;12.120;2023-04-25T14:01:36;8.50;;;2.47;;
60726;SDS011;46577;49.004;12.120;2023-04-25T14:04:02;7.10;;;3.50;;
60726;SDS011;46577;49.004;12.120;2023-04-25T14:06:31;4.93;;;2.53;;
60726;SDS011;46577;49.004;12.120;2023-04-25T14:08:56;5.83;;;2.70;;
60726;SDS011;46577;49.004;12.120;2023-04-25T14:11:22;3.20;;;2.40;;
60726;SDS011;46577;49.004;12.120;2023-04-25T14:13:48;10.03;;;2.10;;
60726;SDS011;46577;49.004;12.120;2023-04-25T14:16:14;5.23;;;2.17;;
60726;SDS011;46577;49.004;12.120;2023-04-25T14:18:40;6.73;;;2.70;;
60726;SDS011;46577;49.004;12.120;2023-04-25T14:21:06;9.40;;;2.47;;
60726;SDS011;46577;49.004;12.120;2023-04-25T14:23:31;4.70;;;2.00;;
60726;SDS011;46577;49.004;12.120;2023-04-25T14:25:57;6.27;;;1.90;;
60726;SDS011;46577;49.004;12.120;2023-04-25T14:28:23;4.70;;;1.70;;
60726;SDS011;46577;49.004;12.120;2023-04-25T14:30:48;5.17;;;2.57;;
60726;SDS011;46577;49.004;12.120;2023-04-25T14:33:14;2.90;;;1.80;;
60726;SDS011;46577;49.004;12.120;2023-04-25T14:35:39;5.40;;;2.90;;
60726;SDS011;46577;49.004;12.120;2023-04-25T14:38:05;5.00;;;2.33;;
60726;SDS011;46577;49.004;12.120;2023-04-25T14:40:31;4.70;;;1.80;;